createdAt,value
2018-05-25T00:01:00.001Z,979.08
2018-05-25T00:02:00.244Z,979.12
2018-05-25T00:03:00.488Z,979.14
2018-05-25T00:04:00.730Z,979.10
2018-05-25T00:05:00.973Z,979.13
2018-05-25T00:06:01.218Z,979.14
2018-05-25T00:07:01.461Z,979.18
2018-05-25T00:08:01.709Z,979.15
2018-05-25T00:09:01.948Z,979.19
2018-05-25T00:10:02.191Z,979.22
2018-05-25T00:11:02.435Z,979.23
2018-05-25T00:12:02.680Z,979.22
2018-05-25T00:13:02.924Z,979.23
2018-05-25T00:14:03.168Z,979.22
2018-05-25T00:15:03.410Z,979.19
2018-05-25T00:16:03.656Z,979.18
2018-05-25T00:17:03.895Z,979.19
2018-05-25T00:18:04.141Z,979.18
2018-05-25T00:19:04.384Z,979.19
2018-05-25T00:20:04.623Z,979.20
2018-05-25T00:21:04.869Z,979.21
2018-05-25T00:22:05.109Z,979.20
2018-05-25T00:23:05.351Z,979.23
2018-05-25T00:24:05.593Z,979.24
2018-05-25T00:25:05.837Z,979.25
2018-05-25T00:26:06.084Z,979.24
2018-05-25T00:27:06.324Z,979.22
2018-05-25T00:28:06.566Z,979.19
2018-05-25T00:29:06.812Z,979.24
2018-05-25T00:30:07.054Z,979.24
2018-05-25T00:31:07.296Z,979.23
2018-05-25T00:32:07.541Z,979.23
2018-05-25T00:33:07.786Z,979.19
2018-05-25T00:34:08.026Z,979.23
2018-05-25T00:35:08.269Z,979.19
2018-05-25T00:36:08.511Z,979.20
2018-05-25T00:37:08.759Z,979.24
2018-05-25T00:38:08.997Z,979.22
2018-05-25T00:39:09.238Z,979.17
2018-05-25T00:40:09.482Z,979.22
2018-05-25T00:41:09.725Z,979.17
2018-05-25T00:42:09.970Z,979.17
2018-05-25T00:43:10.211Z,979.16
2018-05-25T00:44:10.454Z,979.17
2018-05-25T00:45:10.697Z,979.17
2018-05-25T00:46:10.938Z,979.17
2018-05-25T00:47:11.183Z,979.19
2018-05-25T00:48:11.427Z,979.17
2018-05-25T00:49:11.669Z,979.17
2018-05-25T00:50:11.913Z,979.13
2018-05-25T00:51:12.156Z,979.16
2018-05-25T00:52:12.401Z,979.15
2018-05-25T00:53:12.645Z,979.14
2018-05-25T00:54:12.887Z,979.11
2018-05-25T00:55:13.129Z,979.13
2018-05-25T00:56:13.373Z,979.10
2018-05-25T00:57:13.616Z,979.09
2018-05-25T00:58:13.859Z,979.11
2018-05-25T00:59:14.102Z,979.11
2018-05-25T01:00:14.345Z,979.15
2018-05-25T01:01:14.588Z,979.09
2018-05-25T01:02:14.833Z,979.12
2018-05-25T01:03:15.075Z,979.15
2018-05-25T01:04:15.323Z,979.12
2018-05-25T01:05:15.560Z,979.10
2018-05-25T01:06:15.805Z,979.07
2018-05-25T01:07:16.048Z,979.13
2018-05-25T01:08:16.294Z,979.13
2018-05-25T01:09:16.537Z,979.07
2018-05-25T01:10:16.784Z,979.05
2018-05-25T01:11:17.026Z,979.07
2018-05-25T01:12:17.271Z,979.01
2018-05-25T01:13:17.513Z,979.07
2018-05-25T01:14:17.756Z,979.09
2018-05-25T01:15:18.001Z,979.05
2018-05-25T01:16:18.242Z,979.06
2018-05-25T01:17:18.489Z,979.02
2018-05-25T01:18:18.730Z,979.05
2018-05-25T01:19:18.973Z,979.04
2018-05-25T01:20:19.217Z,979.03
2018-05-25T01:21:19.460Z,979.06
2018-05-25T01:22:19.702Z,979.02
2018-05-25T01:23:19.945Z,979.05
2018-05-25T01:24:20.188Z,979.05
2018-05-25T01:25:20.430Z,979.06
2018-05-25T01:26:20.675Z,979.05
2018-05-25T01:27:20.921Z,979.06
2018-05-25T01:28:21.163Z,979.05
2018-05-25T01:29:21.406Z,979.07
2018-05-25T01:30:21.649Z,979.04
2018-05-25T01:31:21.892Z,979.07
2018-05-25T01:32:22.135Z,979.08
2018-05-25T01:33:22.378Z,979.05
2018-05-25T01:34:22.622Z,979.01
2018-05-25T01:35:22.865Z,979.04
2018-05-25T01:36:23.109Z,978.98
2018-05-25T01:37:23.353Z,978.97
2018-05-25T01:38:23.597Z,978.97
2018-05-25T01:39:23.840Z,978.98
2018-05-25T01:40:24.085Z,978.99
2018-05-25T01:41:24.328Z,978.99
2018-05-25T01:42:24.571Z,979.03
2018-05-25T01:43:24.814Z,978.99
2018-05-25T01:44:25.058Z,978.99
2018-05-25T01:45:25.300Z,979.01
2018-05-25T01:46:25.543Z,978.95
2018-05-25T01:47:25.789Z,978.94
2018-05-25T01:48:26.031Z,979.00
2018-05-25T01:49:26.280Z,978.97
2018-05-25T01:50:26.517Z,978.96
2018-05-25T01:51:26.761Z,978.96
2018-05-25T01:52:27.009Z,978.99
2018-05-25T01:53:27.245Z,978.96
2018-05-25T01:54:27.491Z,979.00
2018-05-25T01:55:27.734Z,978.99
2018-05-25T01:56:27.977Z,979.00
2018-05-25T01:57:28.219Z,979.01
2018-05-25T01:58:28.462Z,978.98
2018-05-25T01:59:28.705Z,979.01
2018-05-25T02:00:28.948Z,978.99
2018-05-25T02:01:29.192Z,978.96
2018-05-25T02:02:29.435Z,978.97
2018-05-25T02:03:29.678Z,978.97
2018-05-25T02:04:29.922Z,978.94
2018-05-25T02:05:30.164Z,978.97
2018-05-25T02:06:30.405Z,978.97
2018-05-25T02:07:30.650Z,978.96
2018-05-25T02:08:30.893Z,978.94
2018-05-25T02:09:31.135Z,978.95
2018-05-25T02:10:31.379Z,978.92
2018-05-25T02:11:31.619Z,978.95
2018-05-25T02:12:31.862Z,978.95
2018-05-25T02:13:32.105Z,978.93
2018-05-25T02:14:32.357Z,978.97
2018-05-25T02:15:32.594Z,978.97
2018-05-25T02:16:32.837Z,978.96
2018-05-25T02:17:33.081Z,978.97
2018-05-25T02:18:33.323Z,978.99
2018-05-25T02:19:33.567Z,978.97
2018-05-25T02:20:33.810Z,978.98
2018-05-25T02:21:34.053Z,979.00
2018-05-25T02:22:34.296Z,979.00
2018-05-25T02:23:34.538Z,978.96
2018-05-25T02:24:34.781Z,978.96
2018-05-25T02:25:35.022Z,978.95
2018-05-25T02:26:35.267Z,978.96
2018-05-25T02:27:35.511Z,978.96
2018-05-25T02:28:35.753Z,978.96
2018-05-25T02:29:35.997Z,978.95
2018-05-25T02:30:36.240Z,978.96
2018-05-25T02:31:36.484Z,978.97
2018-05-25T02:32:36.731Z,978.97
2018-05-25T02:33:36.971Z,978.95
2018-05-25T02:34:37.215Z,978.94
2018-05-25T02:35:37.458Z,978.90
2018-05-25T02:36:37.699Z,978.88
2018-05-25T02:37:37.944Z,978.88
2018-05-25T02:38:38.214Z,978.86
2018-05-25T02:39:38.429Z,978.79
2018-05-25T02:40:38.672Z,978.81
2018-05-25T02:41:38.914Z,978.83
2018-05-25T02:42:39.170Z,978.83
2018-05-25T02:43:39.402Z,978.82
2018-05-25T02:44:39.646Z,978.79
2018-05-25T02:45:39.892Z,978.78
2018-05-25T02:46:40.131Z,978.76
2018-05-25T02:47:40.373Z,978.80
2018-05-25T02:48:40.617Z,978.80
2018-05-25T02:49:40.859Z,978.81
2018-05-25T02:50:41.104Z,978.77
2018-05-25T02:51:41.349Z,978.76
2018-05-25T02:52:41.592Z,978.79
2018-05-25T02:53:41.839Z,978.80
2018-05-25T02:54:42.081Z,978.78
2018-05-25T02:55:42.324Z,978.77
2018-05-25T02:56:42.565Z,978.78
2018-05-25T02:57:42.810Z,978.77
2018-05-25T02:58:43.052Z,978.74
2018-05-25T02:59:43.291Z,978.75
2018-05-25T03:00:43.540Z,978.75
2018-05-25T03:01:43.784Z,978.76
2018-05-25T03:02:44.026Z,978.74
2018-05-25T03:03:44.268Z,978.77
2018-05-25T03:04:44.511Z,978.80
2018-05-25T03:05:44.754Z,978.77
2018-05-25T03:06:45.023Z,978.78
2018-05-25T03:07:45.246Z,978.76
2018-05-25T03:08:45.484Z,978.74
2018-05-25T03:09:45.728Z,978.74
2018-05-25T03:10:45.972Z,978.77
2018-05-25T03:11:46.215Z,978.74
2018-05-25T03:12:46.460Z,978.76
2018-05-25T03:13:46.702Z,978.78
2018-05-25T03:14:46.943Z,978.79
2018-05-25T03:15:47.188Z,978.75
2018-05-25T03:16:47.431Z,978.77
2018-05-25T03:17:47.673Z,978.76
2018-05-25T03:18:47.918Z,978.76
2018-05-25T03:19:48.162Z,978.71
2018-05-25T03:20:48.406Z,978.72
2018-05-25T03:21:48.649Z,978.72
2018-05-25T03:22:48.891Z,978.73
2018-05-25T03:23:49.137Z,978.71
2018-05-25T03:24:49.381Z,978.73
2018-05-25T03:25:49.624Z,978.75
2018-05-25T03:26:49.880Z,978.68
2018-05-25T03:27:50.114Z,978.75
2018-05-25T03:28:50.359Z,978.74
2018-05-25T03:29:50.602Z,978.72
2018-05-25T03:30:50.846Z,978.72
2018-05-25T03:31:51.089Z,978.73
2018-05-25T03:32:51.331Z,978.71
2018-05-25T03:33:51.576Z,978.76
2018-05-25T03:34:51.821Z,978.75
2018-05-25T03:35:52.068Z,978.77
2018-05-25T03:36:52.312Z,978.76
2018-05-25T03:37:52.556Z,978.75
2018-05-25T03:38:52.799Z,978.75
2018-05-25T03:39:53.044Z,978.72
2018-05-25T03:40:53.287Z,978.78
2018-05-25T03:41:53.529Z,978.76
2018-05-25T03:42:53.774Z,978.77
2018-05-25T03:43:54.017Z,978.76
2018-05-25T03:44:54.263Z,978.81
2018-05-25T03:45:54.503Z,978.80
2018-05-25T03:46:54.748Z,978.84
2018-05-25T03:47:54.992Z,978.85
2018-05-25T03:48:55.234Z,978.85
2018-05-25T03:49:55.477Z,978.83
2018-05-25T03:50:55.721Z,978.89
2018-05-25T03:51:55.963Z,978.87
2018-05-25T03:52:56.205Z,978.88
2018-05-25T03:53:56.448Z,978.87
2018-05-25T03:54:56.691Z,978.86
2018-05-25T03:55:56.936Z,978.85
2018-05-25T03:56:57.180Z,978.91
2018-05-25T03:57:57.425Z,978.89
2018-05-25T03:58:57.667Z,978.88
2018-05-25T03:59:57.910Z,978.88
2018-05-25T04:00:58.154Z,978.87
2018-05-25T04:01:58.397Z,978.85
2018-05-25T04:02:58.643Z,978.88
2018-05-25T04:03:58.886Z,978.89
2018-05-25T04:04:59.115Z,978.85
2018-05-25T04:05:59.359Z,978.86
2018-05-25T04:06:59.603Z,978.88
2018-05-25T04:07:59.847Z,978.90
2018-05-25T04:09:00.092Z,978.90
2018-05-25T04:10:00.333Z,978.87
2018-05-25T04:11:00.577Z,978.81
2018-05-25T04:12:00.823Z,978.87
2018-05-25T04:13:01.064Z,978.89
2018-05-25T04:14:01.307Z,978.92
2018-05-25T04:15:01.551Z,978.95
2018-05-25T04:16:01.798Z,978.92
2018-05-25T04:17:02.042Z,978.94
2018-05-25T04:18:02.285Z,978.95
2018-05-25T04:19:02.532Z,978.90
2018-05-25T04:20:02.779Z,978.95
2018-05-25T04:21:03.019Z,978.96
2018-05-25T04:22:03.263Z,978.93
2018-05-25T04:23:03.506Z,978.95
2018-05-25T04:24:03.750Z,978.93
2018-05-25T04:25:03.993Z,978.96
2018-05-25T04:26:04.257Z,978.95
2018-05-25T04:27:04.483Z,978.95
2018-05-25T04:28:04.729Z,978.95
2018-05-25T04:29:04.972Z,978.94
2018-05-25T04:30:05.214Z,978.93
2018-05-25T04:31:05.463Z,978.95
2018-05-25T04:32:05.704Z,978.94
2018-05-25T04:33:05.948Z,978.91
2018-05-25T04:34:06.195Z,978.91
2018-05-25T04:35:06.438Z,978.96
2018-05-25T04:36:06.674Z,978.95
2018-05-25T04:37:06.938Z,978.97
2018-05-25T04:38:07.181Z,978.96
2018-05-25T04:39:07.424Z,978.97
2018-05-25T04:40:07.669Z,978.99
2018-05-25T04:41:07.912Z,979.02
2018-05-25T04:42:08.154Z,978.99
2018-05-25T04:43:08.400Z,978.99
2018-05-25T04:44:08.643Z,979.04
2018-05-25T04:45:08.886Z,979.02
2018-05-25T04:46:09.135Z,979.03
2018-05-25T04:47:09.375Z,979.02
2018-05-25T04:48:09.619Z,979.01
2018-05-25T04:49:09.862Z,979.01
2018-05-25T04:50:10.106Z,979.04
2018-05-25T04:51:10.349Z,979.03
2018-05-25T04:52:10.593Z,979.03
2018-05-25T04:53:10.838Z,979.04
2018-05-25T04:54:11.081Z,979.05
2018-05-25T04:55:11.327Z,979.09
2018-05-25T04:56:11.571Z,979.08
2018-05-25T04:57:11.814Z,979.08
2018-05-25T04:58:12.059Z,979.10
2018-05-25T04:59:12.304Z,979.11
2018-05-25T05:00:12.545Z,979.14
2018-05-25T05:01:12.792Z,979.11
2018-05-25T05:02:13.037Z,979.12
2018-05-25T05:03:13.280Z,979.13
2018-05-25T05:04:13.524Z,979.11
2018-05-25T05:05:13.773Z,979.11
2018-05-25T05:06:14.013Z,979.14
2018-05-25T05:07:14.255Z,979.13
2018-05-25T05:08:14.500Z,979.15
2018-05-25T05:09:14.744Z,979.16
2018-05-25T05:10:14.990Z,979.14
2018-05-25T05:11:15.239Z,979.11
2018-05-25T05:12:15.477Z,979.13
2018-05-25T05:13:15.722Z,979.12
2018-05-25T05:14:15.968Z,979.13
2018-05-25T05:15:16.210Z,979.12
2018-05-25T05:16:16.454Z,979.07
2018-05-25T05:17:16.697Z,979.07
2018-05-25T05:18:16.943Z,979.11
2018-05-25T05:19:17.187Z,979.12
2018-05-25T05:20:17.429Z,979.10
2018-05-25T05:21:17.675Z,979.11
2018-05-25T05:22:17.920Z,979.13
2018-05-25T05:23:18.164Z,979.11
2018-05-25T05:24:18.409Z,979.10
2018-05-25T05:25:18.653Z,979.11
2018-05-25T05:26:18.901Z,979.13
2018-05-25T05:27:19.143Z,979.13
2018-05-25T05:28:19.388Z,979.16
2018-05-25T05:29:19.632Z,979.18
2018-05-25T05:30:19.877Z,979.19
2018-05-25T05:31:20.124Z,979.17
2018-05-25T05:32:20.365Z,979.19
2018-05-25T05:33:20.609Z,979.21
2018-05-25T05:34:20.853Z,979.27
2018-05-25T05:35:21.102Z,979.24
2018-05-25T05:36:21.344Z,979.27
2018-05-25T05:37:21.588Z,979.32
2018-05-25T05:38:21.832Z,979.32
2018-05-25T05:39:22.078Z,979.34
2018-05-25T05:40:22.323Z,979.33
2018-05-25T05:41:22.566Z,979.34
2018-05-25T05:42:22.811Z,979.33
2018-05-25T05:43:23.056Z,979.32
2018-05-25T05:44:23.301Z,979.32
2018-05-25T05:45:23.546Z,979.34
2018-05-25T05:46:23.792Z,979.35
2018-05-25T05:47:24.037Z,979.37
2018-05-25T05:48:24.283Z,979.39
2018-05-25T05:49:24.530Z,979.36
2018-05-25T05:50:24.771Z,979.39
2018-05-25T05:51:25.018Z,979.43
2018-05-25T05:52:25.265Z,979.44
2018-05-25T05:53:25.514Z,979.44
2018-05-25T05:54:25.755Z,979.44
2018-05-25T05:55:26.002Z,979.50
2018-05-25T05:56:26.247Z,979.51
2018-05-25T05:57:26.492Z,979.51
2018-05-25T05:58:26.738Z,979.47
2018-05-25T05:59:26.981Z,979.49
2018-05-25T06:00:27.229Z,979.49
2018-05-25T06:01:27.475Z,979.48
2018-05-25T06:02:27.720Z,979.47
2018-05-25T06:03:27.967Z,979.45
2018-05-25T06:04:28.272Z,979.49
2018-05-25T06:05:28.459Z,979.51
2018-05-25T06:06:28.704Z,979.50
2018-05-25T06:07:28.952Z,979.55
2018-05-25T06:08:29.197Z,979.53
2018-05-25T06:09:29.444Z,979.56
2018-05-25T06:10:29.689Z,979.57
2018-05-25T06:11:29.934Z,979.56
2018-05-25T06:12:30.184Z,979.59
2018-05-25T06:13:30.431Z,979.52
2018-05-25T06:14:30.675Z,979.54
2018-05-25T06:15:30.922Z,979.55
2018-05-25T06:16:31.169Z,979.54
2018-05-25T06:17:31.415Z,979.49
2018-05-25T06:18:31.660Z,979.52
2018-05-25T06:19:31.907Z,979.50
2018-05-25T06:20:32.150Z,979.53
2018-05-25T06:21:32.401Z,979.55
2018-05-25T06:22:32.660Z,979.54
2018-05-25T06:23:32.891Z,979.59
2018-05-25T06:24:33.142Z,979.58
2018-05-25T06:25:33.389Z,979.59
2018-05-25T06:26:33.640Z,979.56
2018-05-25T06:27:33.883Z,979.60
2018-05-25T06:28:34.131Z,979.58
2018-05-25T06:29:34.381Z,979.58
2018-05-25T06:30:34.622Z,979.59
2018-05-25T06:31:34.869Z,979.58
2018-05-25T06:32:35.117Z,979.55
2018-05-25T06:33:35.364Z,979.58
2018-05-25T06:34:35.611Z,979.60
2018-05-25T06:35:35.855Z,979.56
2018-05-25T06:36:36.103Z,979.60
2018-05-25T06:37:36.351Z,979.62
2018-05-25T06:38:36.597Z,979.62
2018-05-25T06:39:36.848Z,979.61
2018-05-25T06:40:37.091Z,979.62
2018-05-25T06:41:37.338Z,979.60
2018-05-25T06:42:37.590Z,979.62
2018-05-25T06:43:37.836Z,979.64
2018-05-25T06:44:38.084Z,979.69
2018-05-25T06:45:38.328Z,979.71
2018-05-25T06:46:38.576Z,979.78
2018-05-25T06:47:38.822Z,979.79
2018-05-25T06:48:39.070Z,979.81
2018-05-25T06:49:39.316Z,979.83
2018-05-25T06:50:39.575Z,979.82
2018-05-25T06:51:39.812Z,979.87
2018-05-25T06:52:40.059Z,979.84
2018-05-25T06:53:40.308Z,979.85
2018-05-25T06:54:40.553Z,979.90
2018-05-25T06:55:40.801Z,979.91
2018-05-25T06:56:41.049Z,979.88
2018-05-25T06:57:41.296Z,979.85
2018-05-25T06:58:41.544Z,979.88
2018-05-25T06:59:41.796Z,979.88
2018-05-25T07:00:42.041Z,979.85
2018-05-25T07:01:42.291Z,979.90
2018-05-25T07:02:42.536Z,979.86
2018-05-25T07:03:42.784Z,979.83
2018-05-25T07:04:43.031Z,979.85
2018-05-25T07:05:43.278Z,979.84
2018-05-25T07:06:43.530Z,979.87
2018-05-25T07:07:43.773Z,979.82
2018-05-25T07:08:44.021Z,979.85
2018-05-25T07:09:44.266Z,979.86
2018-05-25T07:10:44.515Z,979.83
2018-05-25T07:11:44.761Z,979.88
2018-05-25T07:12:45.009Z,979.92
2018-05-25T07:13:45.257Z,979.89
2018-05-25T07:14:45.503Z,979.88
2018-05-25T07:15:45.752Z,979.88
2018-05-25T07:16:46.001Z,979.84
2018-05-25T07:17:46.263Z,979.91
2018-05-25T07:18:46.494Z,979.87
2018-05-25T07:19:46.746Z,979.86
2018-05-25T07:20:46.994Z,979.87
2018-05-25T07:21:47.243Z,979.88
2018-05-25T07:22:47.490Z,979.90
2018-05-25T07:23:47.738Z,979.93
2018-05-25T07:24:47.989Z,979.96
2018-05-25T07:25:48.237Z,979.98
2018-05-25T07:26:48.500Z,980.02
2018-05-25T07:27:48.733Z,980.02
2018-05-25T07:28:48.976Z,980.02
2018-05-25T07:29:49.241Z,980.01
2018-05-25T07:30:49.491Z,980.02
2018-05-25T07:31:49.737Z,980.03
2018-05-25T07:32:49.987Z,980.02
2018-05-25T07:33:50.236Z,980.02
2018-05-25T07:34:50.488Z,980.03
2018-05-25T07:35:50.735Z,980.02
2018-05-25T07:36:50.984Z,980.02
2018-05-25T07:37:51.232Z,980.04
2018-05-25T07:38:51.480Z,980.09
2018-05-25T07:39:51.730Z,980.04
2018-05-25T07:40:51.978Z,980.06
2018-05-25T07:41:52.224Z,980.06
2018-05-25T07:42:52.474Z,980.09
2018-05-25T07:43:52.722Z,980.09
2018-05-25T07:44:52.971Z,980.08
2018-05-25T07:46:00.849Z,980.09
2018-05-25T07:46:53.526Z,979.99
2018-05-25T07:47:53.776Z,980.01
2018-05-25T07:48:54.024Z,980.02
2018-05-25T07:49:54.272Z,980.05
2018-05-25T07:50:54.522Z,980.04
2018-05-25T07:51:54.771Z,979.99
2018-05-25T07:52:55.021Z,980.05
2018-05-25T07:53:55.274Z,980.04
2018-05-25T07:54:55.523Z,980.06
2018-05-25T07:55:55.775Z,980.05
2018-05-25T07:56:56.024Z,980.08
2018-05-25T07:57:56.274Z,980.06
2018-05-25T07:58:56.522Z,980.09
2018-05-25T07:59:56.771Z,980.08
2018-05-25T08:00:57.021Z,980.11
2018-05-25T08:01:57.271Z,980.10
2018-05-25T08:02:57.523Z,980.11
2018-05-25T08:03:57.772Z,980.09
2018-05-25T08:04:58.022Z,980.03
2018-05-25T08:05:58.274Z,980.03
2018-05-25T08:06:58.527Z,980.08
2018-05-25T08:07:58.776Z,980.13
2018-05-25T08:08:59.024Z,980.08
2018-05-25T08:09:59.273Z,980.13
2018-05-25T08:10:59.531Z,980.20
2018-05-25T08:11:59.831Z,980.20
2018-05-25T08:13:00.028Z,980.23
2018-05-25T08:14:00.277Z,980.25
2018-05-25T08:15:00.529Z,980.27
2018-05-25T08:16:00.780Z,980.20
2018-05-25T08:17:01.027Z,980.21
2018-05-25T08:18:01.277Z,980.22
2018-05-25T08:19:01.524Z,980.22
2018-05-25T08:20:01.774Z,980.24
2018-05-25T08:21:02.032Z,980.22
2018-05-25T08:22:02.350Z,980.16
2018-05-25T08:23:02.533Z,980.20
2018-05-25T08:24:02.783Z,980.21
2018-05-25T08:25:03.033Z,980.23
2018-05-25T08:26:03.284Z,980.21
2018-05-25T08:27:03.537Z,980.21
2018-05-25T08:28:03.788Z,980.23
2018-05-25T08:29:04.039Z,980.22
2018-05-25T08:30:04.290Z,980.22
2018-05-25T08:31:04.540Z,980.23
2018-05-25T08:32:04.795Z,980.24
2018-05-25T08:33:05.048Z,980.26
2018-05-25T08:34:05.305Z,980.29
2018-05-25T08:35:05.546Z,980.32
2018-05-25T08:36:05.795Z,980.29
2018-05-25T08:37:06.047Z,980.33
2018-05-25T08:38:06.297Z,980.30
2018-05-25T08:39:06.547Z,980.32
2018-05-25T08:40:06.797Z,980.28
2018-05-25T08:41:07.047Z,980.28
2018-05-25T08:42:07.298Z,980.19
2018-05-25T08:43:07.551Z,980.20
2018-05-25T08:44:07.801Z,980.22
2018-05-25T08:45:08.049Z,980.20
2018-05-25T08:46:08.299Z,980.21
2018-05-25T08:47:08.548Z,980.22
2018-05-25T08:48:08.798Z,980.23
2018-05-25T08:49:09.049Z,980.21
2018-05-25T08:50:09.299Z,980.22
2018-05-25T08:51:09.549Z,980.24
2018-05-25T08:52:09.800Z,980.20
2018-05-25T08:53:10.052Z,980.25
2018-05-25T08:54:10.300Z,980.30
2018-05-25T08:55:10.561Z,980.29
2018-05-25T08:56:10.801Z,980.30
2018-05-25T08:57:11.050Z,980.30
2018-05-25T08:58:11.506Z,980.35
2018-05-25T08:59:11.550Z,980.55
2018-05-25T09:00:11.798Z,980.59
2018-05-25T09:01:12.062Z,980.56
2018-05-25T09:02:12.298Z,980.63
2018-05-25T09:03:12.548Z,980.62
2018-05-25T09:04:12.801Z,980.71
2018-05-25T09:05:13.052Z,980.69
2018-05-25T09:06:13.316Z,980.64
2018-05-25T09:07:13.567Z,980.66
2018-05-25T09:08:13.819Z,980.62
2018-05-25T09:09:14.071Z,980.64
2018-05-25T09:10:14.323Z,980.68
2018-05-25T09:11:14.576Z,980.72
2018-05-25T09:12:14.827Z,980.69
2018-05-25T09:13:15.079Z,980.65
2018-05-25T09:14:15.334Z,980.62
2018-05-25T09:15:15.586Z,980.66
2018-05-25T09:16:15.839Z,980.69
2018-05-25T09:17:16.092Z,980.64
2018-05-25T09:18:16.346Z,980.63
2018-05-25T09:19:16.603Z,980.69
2018-05-25T09:20:16.854Z,980.70
2018-05-25T09:21:17.109Z,980.72
2018-05-25T09:22:17.364Z,980.61
2018-05-25T09:23:17.622Z,980.70
2018-05-25T09:24:17.876Z,980.68
2018-05-25T09:25:18.162Z,980.70
2018-05-25T09:26:18.419Z,980.70
2018-05-25T09:27:18.675Z,980.63
2018-05-25T09:28:18.932Z,980.62
2018-05-25T09:29:19.185Z,980.62
2018-05-25T09:30:19.440Z,980.59
2018-05-25T09:31:19.695Z,980.57
2018-05-25T09:32:19.948Z,980.59
2018-05-25T09:33:20.202Z,980.55
2018-05-25T09:34:20.457Z,980.53
2018-05-25T09:35:20.711Z,980.59
2018-05-25T09:36:20.997Z,980.59
2018-05-25T09:37:21.218Z,980.62
2018-05-25T09:38:21.472Z,980.65
2018-05-25T09:39:21.729Z,980.63
2018-05-25T09:40:21.986Z,980.64
2018-05-25T09:41:22.236Z,980.68
2018-05-25T09:42:22.490Z,980.69
2018-05-25T09:43:22.754Z,980.68
2018-05-25T09:44:23.001Z,980.53
2018-05-25T09:45:23.258Z,980.57
2018-05-25T09:46:23.516Z,980.57
2018-05-25T09:47:23.764Z,980.54
2018-05-25T09:48:24.020Z,980.45
2018-05-25T09:49:24.272Z,980.52
2018-05-25T09:50:24.529Z,980.48
2018-05-25T09:51:24.783Z,980.53
2018-05-25T09:52:25.037Z,980.59
2018-05-25T09:53:25.296Z,980.63
2018-05-25T09:54:33.183Z,980.92
2018-05-25T09:55:25.864Z,980.66
2018-05-25T09:56:26.117Z,980.76
2018-05-25T09:57:26.371Z,980.67
2018-05-25T09:58:26.625Z,980.71
2018-05-25T09:59:26.884Z,980.88
2018-05-25T10:00:27.133Z,980.83
2018-05-25T10:01:27.391Z,980.92
2018-05-25T10:02:27.642Z,980.89
2018-05-25T10:03:27.897Z,980.70
2018-05-25T10:04:28.153Z,980.84
2018-05-25T10:05:28.409Z,980.81
2018-05-25T10:06:28.665Z,980.84
2018-05-25T10:07:28.922Z,980.69
2018-05-25T10:08:29.175Z,980.49
2018-05-25T10:09:29.431Z,980.88
2018-05-25T10:10:29.687Z,981.65
2018-05-25T10:11:29.940Z,981.67
2018-05-25T10:12:30.196Z,981.63
2018-05-25T10:13:30.451Z,981.66
2018-05-25T10:14:30.706Z,981.72
2018-05-25T10:15:30.962Z,981.76
2018-05-25T10:16:31.218Z,981.76
2018-05-25T10:17:31.482Z,981.77
2018-05-25T10:18:31.728Z,981.80
2018-05-25T10:19:31.985Z,981.13
2018-05-25T10:20:32.241Z,980.55
2018-05-25T10:21:32.496Z,981.34
2018-05-25T10:22:32.752Z,980.92
2018-05-25T10:23:33.011Z,981.59
2018-05-25T10:24:33.265Z,981.98
2018-05-25T10:25:33.523Z,981.79
2018-05-25T10:26:33.781Z,981.87
2018-05-25T10:27:34.035Z,981.29
2018-05-25T10:28:34.302Z,982.09
2018-05-25T10:29:34.550Z,982.04
2018-05-25T10:30:34.807Z,982.10
2018-05-25T10:31:35.063Z,981.30
2018-05-25T10:32:35.319Z,980.54
2018-05-25T10:33:35.583Z,980.72
2018-05-25T10:34:35.834Z,981.06
2018-05-25T10:35:36.090Z,981.12
2018-05-25T10:36:36.347Z,981.05
2018-05-25T10:37:36.603Z,980.90
2018-05-25T10:38:36.860Z,980.81
2018-05-25T10:39:37.117Z,980.82
2018-05-25T10:40:37.372Z,980.84
2018-05-25T10:41:37.628Z,980.77
2018-05-25T10:42:37.886Z,980.79
2018-05-25T10:43:38.141Z,980.78
2018-05-25T10:44:38.398Z,980.78
2018-05-25T10:45:38.671Z,980.72
2018-05-25T10:46:38.915Z,980.73
2018-05-25T10:47:39.174Z,980.70
2018-05-25T10:48:39.435Z,980.68
2018-05-25T10:49:39.691Z,980.66
2018-05-25T10:50:39.949Z,980.68
2018-05-25T10:51:40.205Z,980.67
2018-05-25T10:52:40.466Z,980.28
2018-05-25T10:53:40.722Z,980.31
2018-05-25T10:54:40.979Z,980.24
2018-05-25T10:55:41.234Z,980.28
2018-05-25T10:56:41.491Z,980.27
2018-05-25T10:57:41.749Z,980.31
2018-05-25T10:58:42.006Z,980.43
2018-05-25T10:59:42.264Z,980.64
2018-05-25T11:00:42.519Z,980.55
2018-05-25T11:01:42.781Z,981.30
2018-05-25T11:02:43.034Z,981.40
2018-05-25T11:03:43.329Z,981.03
2018-05-25T11:04:43.555Z,980.91
2018-05-25T11:05:43.807Z,980.32
2018-05-25T11:06:44.064Z,980.31
2018-05-25T11:07:44.322Z,980.28
2018-05-25T11:08:44.576Z,980.29
2018-05-25T11:09:44.839Z,980.29
2018-05-25T11:10:45.100Z,980.32
2018-05-25T11:11:45.350Z,980.44
2018-05-25T11:12:45.606Z,980.53
2018-05-25T11:13:45.864Z,980.84
2018-05-25T11:14:46.122Z,980.28
2018-05-25T11:15:46.381Z,980.22
2018-05-25T11:16:46.637Z,980.30
2018-05-25T11:17:46.894Z,980.97
2018-05-25T11:18:47.150Z,980.52
2018-05-25T11:19:47.409Z,981.02
2018-05-25T11:20:47.666Z,980.94
2018-05-25T11:21:47.922Z,980.90
2018-05-25T11:22:48.177Z,980.82
2018-05-25T11:23:48.446Z,980.99
2018-05-25T11:24:48.695Z,981.00
2018-05-25T11:25:48.952Z,980.92
2018-05-25T11:26:49.204Z,980.42
2018-05-25T11:27:49.460Z,980.36
2018-05-25T11:28:49.716Z,980.83
2018-05-25T11:29:50.000Z,980.78
2018-05-25T11:30:50.282Z,980.71
2018-05-25T11:31:50.532Z,979.99
2018-05-25T11:32:50.791Z,979.93
2018-05-25T11:33:51.054Z,980.05
2018-05-25T11:34:51.312Z,980.74
2018-05-25T11:35:51.566Z,980.61
2018-05-25T11:36:51.822Z,980.27
2018-05-25T11:37:52.079Z,980.36
2018-05-25T11:38:52.336Z,980.29
2018-05-25T11:39:52.591Z,980.43
2018-05-25T11:40:52.849Z,980.00
2018-05-25T11:41:53.103Z,980.01
2018-05-25T11:42:53.362Z,980.00
2018-05-25T11:43:53.617Z,979.97
2018-05-25T11:44:53.875Z,980.02
2018-05-25T11:45:54.129Z,979.99
2018-05-25T11:46:54.389Z,980.01
2018-05-25T11:47:54.645Z,980.39
2018-05-25T11:48:54.901Z,980.38
2018-05-25T11:49:55.157Z,980.36
2018-05-25T11:50:55.414Z,980.35
2018-05-25T11:51:55.670Z,980.35
2018-05-25T11:52:55.932Z,980.36
2018-05-25T11:53:56.181Z,980.31
2018-05-25T11:54:56.442Z,980.34
2018-05-25T11:55:56.691Z,980.35
2018-05-25T11:56:56.949Z,980.36
2018-05-25T11:57:57.203Z,980.36
2018-05-25T11:58:57.456Z,980.39
2018-05-25T11:59:57.715Z,980.45
2018-05-25T12:00:57.974Z,980.36
2018-05-25T12:01:58.232Z,980.37
2018-05-25T12:02:58.554Z,980.40
2018-05-25T12:03:58.814Z,980.42
2018-05-25T12:04:59.072Z,980.40
2018-05-25T12:05:59.330Z,980.35
2018-05-25T12:06:59.588Z,979.91
2018-05-25T12:07:59.847Z,979.94
2018-05-25T12:09:00.106Z,979.92
2018-05-25T12:10:00.408Z,979.89
2018-05-25T12:11:00.665Z,979.88
2018-05-25T12:12:00.921Z,979.88
2018-05-25T12:13:01.170Z,979.92
2018-05-25T12:14:01.429Z,979.88
2018-05-25T12:15:01.686Z,979.90
2018-05-25T12:16:01.945Z,979.88
2018-05-25T12:17:02.199Z,979.86
2018-05-25T12:18:02.452Z,979.84
2018-05-25T12:19:02.708Z,979.84
2018-05-25T12:20:03.002Z,979.85
2018-05-25T12:21:03.263Z,980.06
2018-05-25T12:22:03.518Z,980.10
2018-05-25T12:23:03.773Z,980.11
2018-05-25T12:24:04.026Z,980.07
2018-05-25T12:25:04.329Z,980.12
2018-05-25T12:26:04.607Z,980.14
2018-05-25T12:27:04.908Z,980.13
2018-05-25T12:28:05.223Z,980.15
2018-05-25T12:29:05.450Z,980.15
2018-05-25T12:30:05.742Z,980.14
2018-05-25T12:31:05.999Z,980.15
2018-05-25T12:32:06.251Z,980.09